createdAt,value
2022-10-21T00:01:41.554Z,-1.22
2022-10-21T00:04:44.623Z,-1.24
2022-10-21T00:07:46.383Z,-1.25
2022-10-21T00:10:54.325Z,-1.31
2022-10-21T00:13:56.180Z,-1.33
2022-10-21T00:16:58.921Z,-1.33
2022-10-21T00:20:00.705Z,-1.34
2022-10-21T00:23:02.448Z,-1.35
2022-10-21T00:26:05.039Z,-1.43
2022-10-21T00:29:06.887Z,-1.60
2022-10-21T00:32:08.657Z,-1.65
2022-10-21T00:35:10.407Z,-1.63
2022-10-21T00:38:12.182Z,-1.62
2022-10-21T00:41:14.629Z,-1.61
2022-10-21T00:44:16.324Z,-1.60
2022-10-21T00:47:20.141Z,-1.66
2022-10-21T00:50:34.590Z,-1.68
2022-10-21T00:53:41.252Z,-1.71
2022-10-21T00:56:44.824Z,-1.75
2022-10-21T00:59:51.295Z,-1.75
2022-10-21T01:02:54.088Z,-1.74
2022-10-21T01:05:58.350Z,-1.74
2022-10-21T01:09:01.324Z,-1.80
2022-10-21T01:12:03.767Z,-1.89
2022-10-21T01:15:12.381Z,-2.03
2022-10-21T01:18:18.852Z,-2.19
2022-10-21T01:21:38.858Z,-2.29
2022-10-21T01:24:59.057Z,-2.33
2022-10-21T01:28:10.328Z,-2.34
2022-10-21T01:31:33.095Z,-2.37
2022-10-21T01:34:38.283Z,-2.37
2022-10-21T01:37:43.013Z,-2.33
2022-10-21T01:41:07.157Z,-2.32
2022-10-21T01:44:27.695Z,-2.28
2022-10-21T01:47:43.719Z,-2.23
2022-10-21T01:50:49.279Z,-2.23
2022-10-21T01:53:55.910Z,-2.25
2022-10-21T01:56:59.736Z,-2.28
2022-10-21T02:00:01.988Z,-2.35
2022-10-21T02:03:08.051Z,-2.42
2022-10-21T02:06:10.267Z,-2.59
2022-10-21T02:09:12.114Z,-2.71
2022-10-21T02:12:15.288Z,-2.69
2022-10-21T02:15:18.188Z,-2.66
2022-10-21T02:18:24.281Z,-2.67
2022-10-21T02:21:34.045Z,-2.62
2022-10-21T02:24:55.972Z,-2.56
2022-10-21T02:27:57.839Z,-2.52
2022-10-21T02:30:59.453Z,-2.50
2022-10-21T02:34:15.017Z,-2.47
2022-10-21T02:37:55.441Z,-2.47
2022-10-21T02:41:07.151Z,-2.46
2022-10-21T02:44:09.004Z,-2.46
2022-10-21T02:50:17.684Z,-2.46
2022-10-21T02:53:19.718Z,-2.49
2022-10-21T02:56:21.610Z,-2.50
2022-10-21T02:59:23.450Z,-2.55
2022-10-21T03:02:25.307Z,-2.58
2022-10-21T03:05:27.500Z,-2.61
2022-10-21T03:08:29.368Z,-2.70
2022-10-21T03:11:31.059Z,-2.75
2022-10-21T03:14:33.035Z,-2.76
2022-10-21T03:17:34.886Z,-2.81
2022-10-21T03:20:36.806Z,-2.85
2022-10-21T03:23:38.545Z,-2.85
2022-10-21T03:26:40.439Z,-2.84
2022-10-21T03:29:42.151Z,-2.82
2022-10-21T03:32:43.962Z,-2.85
2022-10-21T03:35:45.790Z,-2.93
2022-10-21T03:38:47.661Z,-2.97
2022-10-21T03:41:49.735Z,-3.00
2022-10-21T03:44:53.687Z,-2.97
2022-10-21T03:47:55.964Z,-2.99
2022-10-21T03:50:57.722Z,-2.98
2022-10-21T03:53:59.355Z,-2.94
2022-10-21T03:57:01.175Z,-2.90
2022-10-21T04:00:03.808Z,-2.87
2022-10-21T04:03:05.843Z,-2.86
2022-10-21T04:06:07.655Z,-2.87
2022-10-21T04:09:09.367Z,-2.88
2022-10-21T04:12:12.375Z,-2.87
2022-10-21T04:15:14.892Z,-2.89
2022-10-21T04:18:16.799Z,-2.90
2022-10-21T04:21:18.637Z,-2.91
2022-10-21T04:24:20.407Z,-2.92
2022-10-21T04:27:22.163Z,-3.06
2022-10-21T04:30:23.858Z,-3.22
2022-10-21T04:33:25.661Z,-3.31
2022-10-21T04:36:27.547Z,-3.34
2022-10-21T04:39:29.193Z,-3.40
2022-10-21T04:42:30.870Z,-3.40
2022-10-21T04:45:32.697Z,-3.41
2022-10-21T04:48:34.370Z,-3.40
2022-10-21T04:51:36.209Z,-3.40
2022-10-21T04:54:37.872Z,-3.41
2022-10-21T04:57:40.484Z,-3.46
2022-10-21T05:00:42.143Z,-3.44
2022-10-21T05:03:44.050Z,-3.43
2022-10-21T05:06:45.986Z,-3.52
2022-10-21T05:09:47.577Z,-3.65
2022-10-21T05:12:49.761Z,-3.75
2022-10-21T05:15:51.439Z,-3.63
2022-10-21T05:18:53.205Z,-3.41
2022-10-21T05:21:55.329Z,-3.45
2022-10-21T05:24:57.088Z,-3.51
2022-10-21T05:27:58.773Z,-3.51
2022-10-21T05:31:00.748Z,-3.51
2022-10-21T05:34:02.740Z,-3.38
2022-10-21T05:37:04.520Z,-3.25
2022-10-21T05:40:06.742Z,-3.20
2022-10-21T05:43:08.532Z,-3.13
2022-10-21T05:46:10.511Z,-3.06
2022-10-21T05:49:13.194Z,-3.00
2022-10-21T05:52:15.122Z,-2.89
2022-10-21T05:55:17.077Z,-2.77
2022-10-21T05:58:18.775Z,-2.60
2022-10-21T06:01:20.854Z,-2.15
2022-10-21T06:04:22.611Z,-1.54
2022-10-21T06:07:24.665Z,-1.00
2022-10-21T06:10:28.367Z,-0.60
2022-10-21T06:13:32.118Z,-0.46
2022-10-21T06:16:36.926Z,-0.40
2022-10-21T06:19:38.793Z,-0.11
2022-10-21T06:22:40.568Z,0.39
2022-10-21T06:25:43.810Z,1.13
2022-10-21T06:28:45.688Z,1.70
2022-10-21T06:31:47.459Z,1.74
2022-10-21T06:34:49.377Z,1.76
2022-10-21T06:37:51.114Z,1.78
2022-10-21T06:40:53.177Z,1.57
2022-10-21T06:43:54.865Z,1.34
2022-10-21T06:46:56.594Z,1.30
2022-10-21T06:50:03.186Z,1.40
2022-10-21T06:53:05.159Z,1.28
2022-10-21T06:56:14.255Z,1.08
2022-10-21T06:59:16.018Z,0.96
2022-10-21T07:02:17.835Z,0.96
2022-10-21T07:05:19.497Z,1.01
2022-10-21T07:08:22.515Z,1.15
2022-10-21T07:11:36.767Z,1.27
2022-10-21T07:14:38.558Z,1.36
2022-10-21T07:17:40.469Z,1.43
2022-10-21T07:20:42.731Z,1.52
2022-10-21T07:23:46.185Z,1.56
2022-10-21T07:26:48.740Z,1.61
2022-10-21T07:29:50.466Z,1.62
2022-10-21T07:32:52.326Z,1.72
2022-10-21T07:36:13.182Z,1.86
2022-10-21T07:39:17.170Z,2.09
2022-10-21T07:42:18.934Z,2.20
2022-10-21T07:45:20.610Z,2.33
2022-10-21T07:48:23.671Z,2.37
2022-10-21T07:51:28.566Z,2.53
2022-10-21T07:54:32.340Z,2.98
2022-10-21T07:57:34.186Z,3.22
2022-10-21T08:00:36.537Z,3.39
2022-10-21T08:03:39.091Z,3.61
2022-10-21T08:06:41.641Z,4.00
2022-10-21T08:09:43.399Z,4.48
2022-10-21T08:12:45.188Z,4.84
2022-10-21T08:15:50.479Z,5.19
2022-10-21T08:18:52.874Z,5.60
2022-10-21T08:21:56.872Z,5.70
2022-10-21T08:24:58.683Z,5.83
2022-10-21T08:28:00.384Z,6.10
2022-10-21T08:31:07.715Z,6.39
2022-10-21T08:34:09.937Z,6.61
2022-10-21T08:37:11.875Z,6.55
2022-10-21T08:40:14.200Z,6.78
2022-10-21T08:43:27.597Z,6.98
2022-10-21T08:46:34.168Z,7.67
2022-10-21T08:49:54.114Z,8.56
2022-10-21T08:53:01.372Z,9.38
2022-10-21T08:56:11.949Z,10.12
2022-10-21T08:59:22.296Z,11.00
2022-10-21T09:02:39.820Z,11.60
2022-10-21T09:05:59.993Z,11.52
2022-10-21T09:09:09.059Z,11.34
2022-10-21T09:12:17.014Z,11.30
2022-10-21T09:15:54.091Z,11.32
2022-10-21T09:19:32.224Z,11.90
2022-10-21T09:22:45.380Z,12.13
2022-10-21T09:26:00.758Z,12.15
2022-10-21T09:29:30.180Z,12.26
2022-10-21T09:32:35.051Z,12.42
2022-10-21T09:35:41.533Z,12.22
2022-10-21T09:38:55.237Z,11.78
2022-10-21T09:42:00.183Z,11.73
2022-10-21T09:45:07.013Z,11.65
2022-10-21T09:48:18.207Z,11.68
2022-10-21T09:51:25.085Z,11.79
2022-10-21T09:54:30.331Z,11.90
2022-10-21T09:57:32.097Z,12.01
2022-10-21T10:00:44.523Z,12.15
2022-10-21T10:03:48.577Z,12.23
2022-10-21T10:06:50.715Z,12.20
2022-10-21T10:09:52.475Z,12.11
2022-10-21T10:12:59.160Z,12.05
2022-10-21T10:16:22.920Z,11.93
2022-10-21T10:19:27.632Z,11.84
2022-10-21T10:22:35.920Z,11.77
2022-10-21T10:25:39.225Z,11.76
2022-10-21T10:31:50.969Z,11.88
2022-10-21T10:34:56.392Z,12.00
2022-10-21T10:38:00.002Z,12.36
2022-10-21T10:41:08.788Z,12.85
2022-10-21T10:44:31.196Z,12.97
2022-10-21T10:47:41.831Z,12.95
2022-10-21T10:50:45.015Z,12.80
2022-10-21T10:53:59.739Z,12.50
2022-10-21T10:57:05.433Z,12.56
2022-10-21T11:00:17.478Z,12.58
2022-10-21T11:03:26.470Z,12.49
2022-10-21T11:06:39.070Z,12.50
2022-10-21T11:09:40.915Z,12.54
2022-10-21T11:12:42.985Z,12.59
2022-10-21T11:16:00.019Z,12.63
2022-10-21T11:19:19.232Z,12.63
2022-10-21T11:22:24.889Z,12.63
2022-10-21T11:25:38.363Z,12.62
2022-10-21T11:28:50.549Z,12.66
2022-10-21T11:32:11.678Z,12.64
2022-10-21T11:35:32.512Z,12.59
2022-10-21T11:39:21.242Z,12.57
2022-10-21T11:42:31.942Z,12.59
2022-10-21T11:45:33.659Z,12.60
2022-10-21T11:48:54.539Z,12.61
2022-10-21T11:52:02.441Z,12.59
2022-10-21T11:55:32.421Z,12.55
2022-10-21T11:58:37.304Z,12.52
2022-10-21T12:01:46.980Z,12.49
2022-10-21T12:05:17.131Z,12.47
2022-10-21T12:08:28.659Z,12.43
2022-10-21T12:11:39.776Z,12.41
2022-10-21T12:14:50.324Z,12.39
2022-10-21T12:17:52.716Z,12.37
2022-10-21T12:20:56.269Z,12.39
2022-10-21T12:24:22.674Z,12.39
2022-10-21T12:27:42.496Z,12.41
2022-10-21T12:30:55.352Z,12.46
2022-10-21T12:33:57.399Z,12.51
2022-10-21T12:36:59.232Z,12.54
2022-10-21T12:40:26.278Z,12.57
2022-10-21T12:43:28.982Z,12.57
2022-10-21T12:46:40.101Z,12.58
2022-10-21T12:49:43.706Z,12.61
2022-10-21T12:52:46.561Z,12.67
2022-10-21T12:55:56.130Z,12.74
2022-10-21T12:59:01.854Z,12.82
2022-10-21T13:02:06.842Z,12.87
2022-10-21T13:05:08.823Z,12.88
2022-10-21T13:08:22.990Z,12.89
2022-10-21T13:11:39.051Z,12.89
2022-10-21T13:14:52.607Z,12.85
2022-10-21T13:17:56.043Z,12.83
2022-10-21T13:20:59.870Z,12.84
2022-10-21T13:24:20.315Z,12.88
2022-10-21T13:31:00.658Z,12.96
2022-10-21T13:34:02.967Z,13.04
2022-10-21T13:37:13.171Z,13.10
2022-10-21T13:40:17.834Z,13.15
2022-10-21T13:43:29.005Z,13.15
2022-10-21T13:46:43.642Z,13.11
2022-10-21T13:49:54.292Z,13.10
2022-10-21T13:52:56.146Z,13.16
2022-10-21T13:56:04.656Z,13.19
2022-10-21T13:59:18.424Z,13.15
2022-10-21T14:02:25.150Z,13.10
2022-10-21T14:05:39.713Z,13.08
2022-10-21T14:08:42.829Z,13.06
2022-10-21T14:11:48.823Z,13.01
2022-10-21T14:14:51.779Z,12.89
2022-10-21T14:17:58.604Z,12.80
2022-10-21T14:21:01.168Z,12.71
2022-10-21T14:24:03.727Z,12.69
2022-10-21T14:27:06.028Z,12.65
2022-10-21T14:30:10.329Z,12.65
2022-10-21T14:33:17.204Z,12.63
2022-10-21T14:36:23.425Z,12.59
2022-10-21T14:39:25.290Z,12.54
2022-10-21T14:42:27.068Z,12.50
2022-10-21T14:45:32.796Z,12.44
2022-10-21T14:48:38.169Z,12.36
2022-10-21T14:51:39.985Z,12.27
2022-10-21T14:54:47.966Z,12.18
2022-10-21T14:57:54.232Z,12.08
2022-10-21T15:00:58.711Z,11.99
2022-10-21T15:04:01.624Z,11.91
2022-10-21T15:07:03.305Z,11.81
2022-10-21T15:10:05.568Z,11.72
2022-10-21T15:13:20.086Z,11.62
2022-10-21T15:16:25.610Z,11.51
2022-10-21T15:19:32.940Z,11.41
2022-10-21T15:22:38.047Z,11.30
2022-10-21T15:25:39.784Z,11.22
2022-10-21T15:28:42.375Z,11.15
2022-10-21T15:31:44.379Z,11.08
2022-10-21T15:34:50.337Z,11.01
2022-10-21T15:37:53.421Z,10.92
2022-10-21T15:40:55.164Z,10.83
2022-10-21T15:43:56.997Z,10.78
2022-10-21T15:47:02.950Z,10.73
2022-10-21T15:50:13.961Z,10.68
2022-10-21T15:53:15.777Z,10.63
2022-10-21T15:56:19.537Z,10.58
2022-10-21T15:59:30.300Z,10.52
2022-10-21T16:02:32.035Z,10.47
2022-10-21T16:05:33.921Z,10.42
2022-10-21T16:08:35.665Z,10.37
2022-10-21T16:11:41.477Z,10.32
2022-10-21T16:14:49.895Z,10.26
2022-10-21T16:17:56.016Z,10.19
2022-10-21T16:20:58.741Z,10.11
2022-10-21T16:24:00.791Z,10.01
2022-10-21T16:27:02.511Z,9.92
2022-10-21T16:30:18.257Z,9.84
2022-10-21T16:33:20.049Z,9.75
2022-10-21T16:36:25.725Z,9.69
2022-10-21T16:39:27.538Z,9.66
2022-10-21T16:42:29.294Z,9.64
2022-10-21T16:45:32.083Z,9.63
2022-10-21T16:48:33.904Z,9.62
2022-10-21T16:51:37.404Z,9.60
2022-10-21T16:54:39.358Z,9.56
2022-10-21T16:57:41.568Z,9.47
2022-10-21T17:00:45.115Z,9.28
2022-10-21T17:03:47.080Z,9.02
2022-10-21T17:06:48.879Z,8.90
2022-10-21T17:09:50.652Z,8.86
2022-10-21T17:12:59.151Z,8.73
2022-10-21T17:16:00.970Z,8.43
2022-10-21T17:19:02.756Z,8.17
2022-10-21T17:22:04.481Z,8.00
2022-10-21T17:25:06.511Z,7.91
2022-10-21T17:28:09.075Z,7.85
2022-10-21T17:31:19.306Z,7.76
2022-10-21T17:34:26.661Z,7.72
2022-10-21T17:37:28.427Z,7.70
2022-10-21T17:40:30.343Z,7.70
2022-10-21T17:43:32.223Z,7.68
2022-10-21T17:46:34.293Z,7.68
2022-10-21T17:49:36.030Z,7.67
2022-10-21T17:52:38.738Z,7.68
2022-10-21T17:55:40.733Z,7.70
2022-10-21T17:58:42.399Z,7.72
2022-10-21T18:01:44.231Z,7.74
2022-10-21T18:04:46.628Z,7.74
2022-10-21T18:07:48.587Z,7.74
2022-10-21T18:10:55.655Z,7.76
2022-10-21T18:13:57.504Z,7.76
2022-10-21T18:16:59.312Z,7.78
2022-10-21T18:20:01.098Z,7.78
2022-10-21T18:23:02.899Z,7.78
2022-10-21T18:26:06.327Z,7.74
2022-10-21T18:29:08.044Z,7.69
2022-10-21T18:32:13.749Z,7.62
2022-10-21T18:35:16.738Z,7.56
2022-10-21T18:38:18.427Z,7.44
2022-10-21T18:41:21.493Z,7.34
2022-10-21T18:44:23.864Z,7.30
2022-10-21T18:47:28.191Z,7.37
2022-10-21T18:50:30.247Z,7.31
2022-10-21T18:53:33.994Z,7.28
2022-10-21T18:56:36.010Z,7.25
2022-10-21T18:59:37.784Z,7.23
2022-10-21T19:02:40.784Z,7.23
2022-10-21T19:05:43.566Z,7.20
2022-10-21T19:08:46.436Z,7.12
2022-10-21T19:11:49.081Z,7.09
2022-10-21T19:14:50.970Z,7.09
2022-10-21T19:17:52.722Z,7.06
2022-10-21T19:20:54.636Z,7.05
2022-10-21T19:23:56.846Z,7.03
2022-10-21T19:26:59.198Z,7.04
2022-10-21T19:30:01.045Z,7.05
2022-10-21T19:33:04.340Z,7.07
2022-10-21T19:36:06.732Z,7.12
2022-10-21T19:39:08.817Z,7.17
2022-10-21T19:42:10.795Z,7.21
2022-10-21T19:45:17.312Z,7.24
2022-10-21T19:48:20.394Z,7.28
2022-10-21T19:51:23.980Z,7.29
2022-10-21T19:54:25.756Z,7.31
2022-10-21T19:57:27.622Z,7.36
2022-10-21T20:00:29.503Z,7.37
2022-10-21T20:03:31.615Z,7.36
2022-10-21T20:06:35.785Z,7.38
2022-10-21T20:09:38.892Z,7.45
2022-10-21T20:12:41.520Z,7.49
2022-10-21T20:15:47.277Z,7.53
2022-10-21T20:18:49.564Z,7.50
2022-10-21T20:21:51.620Z,7.45
2022-10-21T20:24:53.524Z,7.38
2022-10-21T20:27:55.268Z,7.28
2022-10-21T20:31:01.773Z,7.15
2022-10-21T20:34:03.684Z,7.08
2022-10-21T20:37:05.847Z,7.06
2022-10-21T20:40:08.052Z,7.08
2022-10-21T20:43:09.800Z,7.08
2022-10-21T20:46:13.373Z,7.04
2022-10-21T20:49:15.107Z,7.02
2022-10-21T20:52:16.828Z,7.00
2022-10-21T20:55:18.871Z,6.99
2022-10-21T20:58:20.898Z,6.97
2022-10-21T21:01:25.581Z,6.96
2022-10-21T21:04:27.567Z,6.92
2022-10-21T21:07:29.290Z,6.90
2022-10-21T21:10:31.344Z,6.89
2022-10-21T21:13:33.878Z,6.86
2022-10-21T21:16:35.743Z,6.78
2022-10-21T21:19:39.463Z,6.71
2022-10-21T21:22:41.707Z,6.68
2022-10-21T21:25:43.971Z,6.73
2022-10-21T21:28:46.327Z,6.84
2022-10-21T21:31:48.202Z,6.91
2022-10-21T21:34:55.034Z,6.98
2022-10-21T21:37:56.986Z,7.04
2022-10-21T21:40:58.892Z,7.09
2022-10-21T21:44:00.806Z,7.13
2022-10-21T21:47:03.534Z,7.16
2022-10-21T21:50:05.710Z,7.18
2022-10-21T21:53:09.998Z,7.21
2022-10-21T21:56:12.139Z,7.22
2022-10-21T21:59:13.969Z,7.23
2022-10-21T22:02:15.659Z,7.22
2022-10-21T22:05:17.579Z,7.22
2022-10-21T22:08:19.315Z,7.21
2022-10-21T22:11:25.129Z,7.21
2022-10-21T22:14:27.191Z,7.20
2022-10-21T22:17:29.018Z,7.20
2022-10-21T22:20:31.107Z,7.18
2022-10-21T22:23:32.963Z,7.16
2022-10-21T22:26:35.139Z,7.11
2022-10-21T22:29:36.959Z,7.07
2022-10-21T22:32:38.971Z,7.04
2022-10-21T22:35:40.678Z,7.00
2022-10-21T22:38:42.835Z,6.96
2022-10-21T22:41:44.634Z,6.92
2022-10-21T22:44:46.661Z,6.89
2022-10-21T22:47:48.337Z,6.85
2022-10-21T22:50:50.135Z,6.81
2022-10-21T22:53:55.390Z,6.72
2022-10-21T22:56:59.131Z,6.66
2022-10-21T23:00:00.973Z,6.68
2022-10-21T23:03:06.131Z,6.75
2022-10-21T23:06:31.945Z,6.78
2022-10-21T23:09:47.803Z,6.77
2022-10-21T23:13:06.441Z,6.69
2022-10-21T23:16:08.402Z,6.57
2022-10-21T23:19:13.381Z,6.52
2022-10-21T23:22:15.262Z,6.47
2022-10-21T23:25:17.452Z,6.50
2022-10-21T23:31:25.988Z,6.58
2022-10-21T23:34:27.933Z,6.60
2022-10-21T23:37:29.719Z,6.59
2022-10-21T23:40:31.336Z,6.58
2022-10-21T23:43:33.094Z,6.58
2022-10-21T23:46:34.812Z,6.57
2022-10-21T23:49:36.664Z,6.43
2022-10-21T23:52:38.876Z,6.26
2022-10-21T23:55:40.558Z,6.16
2022-10-21T23:58:42.243Z,6.14
